Terminal Aerodrome Forecast
Issued by NWS

Current Version | Previous Version | Text Only | Print | Product List | Glossary On
Versions: 1 2 3 4 5 6 7 8 9 10 11 12 13 14 15 16 17 18 19 20
722
FTUS42 KJAX 271120
TAFVQQ
TAF
KVQQ 271120Z 2712/2812 03003KT P6SM FEW030 BKN200
     FM271300 09010KT P6SM VCSH SCT030 BKN045
      TEMPO 2713/2717 SHRA BKN030
     FM271800 09011G18KT P6SM VCSH BKN040 BKN250
     FM280000 08006KT P6SM FEW040 SCT100=

USA.gov is the U.S. government's official web portal to all federal, state and local government web resources and services.